createdAt,value
2022-08-28T00:04:25.273Z,100666.28
2022-08-28T00:09:47.249Z,100661.94
2022-08-28T00:15:13.515Z,100662.41
2022-08-28T00:20:37.539Z,100666.75
2022-08-28T00:26:00.948Z,100659.50
2022-08-28T00:31:25.216Z,100657.13
2022-08-28T00:36:47.508Z,100642.66
2022-08-28T00:42:10.770Z,100657.28
2022-08-28T00:47:32.670Z,100652.00
2022-08-28T00:53:00.579Z,100638.00
2022-08-28T00:58:22.671Z,100649.53
2022-08-28T01:03:45.939Z,100631.91
2022-08-28T01:09:08.240Z,100635.88
2022-08-28T01:14:32.899Z,100647.88
2022-08-28T01:20:01.451Z,100592.72
2022-08-28T01:25:27.389Z,100617.72
2022-08-28T01:30:52.500Z,100638.41
2022-08-28T01:36:15.449Z,100634.88
2022-08-28T01:41:47.229Z,100638.06
2022-08-28T01:47:09.149Z,100635.97
2022-08-28T01:52:31.909Z,100638.34
2022-08-28T01:57:56.689Z,100636.31
2022-08-28T02:03:18.850Z,100622.16
2022-08-28T02:08:41.247Z,100629.38
2022-08-28T02:14:04.192Z,100639.03
2022-08-28T02:19:26.587Z,100643.00
2022-08-28T02:24:49.031Z,100638.34
2022-08-28T02:30:13.301Z,100635.03
2022-08-28T02:35:35.619Z,100638.06
2022-08-28T02:40:58.379Z,100636.25
2022-08-28T02:46:20.534Z,100627.75
2022-08-28T02:51:42.819Z,100644.59
2022-08-28T02:57:04.849Z,100641.41
2022-08-28T03:02:26.933Z,100641.75
2022-08-28T03:07:50.860Z,100639.25
2022-08-28T03:13:26.775Z,100643.59
2022-08-28T03:18:49.279Z,100640.09
2022-08-28T03:24:11.419Z,100631.78
2022-08-28T03:29:37.668Z,100623.34
2022-08-28T03:34:59.260Z,100630.69
2022-08-28T03:40:22.047Z,100631.50
2022-08-28T03:46:03.431Z,100598.47
2022-08-28T03:51:29.219Z,100617.50
2022-08-28T03:56:52.670Z,100622.72
2022-08-28T04:02:15.978Z,100621.81
2022-08-28T04:07:38.506Z,100604.72
2022-08-28T04:13:01.501Z,100574.50
2022-08-28T04:18:23.460Z,100607.59
2022-08-28T04:23:52.631Z,100613.47
2022-08-28T04:29:16.706Z,100590.72
2022-08-28T04:34:40.032Z,100608.81
2022-08-28T04:40:02.251Z,100552.69
2022-08-28T04:45:28.589Z,100570.44
2022-08-28T04:50:51.119Z,100573.22
2022-08-28T04:56:15.239Z,100534.91
2022-08-28T05:01:37.220Z,100528.19
2022-08-28T05:06:59.350Z,100559.03
2022-08-28T05:12:21.201Z,100564.25
2022-08-28T05:17:43.241Z,100558.25
2022-08-28T05:23:06.820Z,100582.22
2022-08-28T05:28:31.628Z,100562.91
2022-08-28T05:33:54.588Z,100531.78
2022-08-28T05:39:18.081Z,100560.31
2022-08-28T05:44:40.189Z,100563.31
2022-08-28T05:50:02.342Z,100529.66
2022-08-28T05:55:25.070Z,100549.84
2022-08-28T06:00:47.790Z,100559.16
2022-08-28T06:06:11.112Z,100530.94
2022-08-28T06:11:36.082Z,100527.25
2022-08-28T06:16:59.380Z,100529.25
2022-08-28T06:22:21.819Z,100531.53
2022-08-28T06:27:43.981Z,100545.44
2022-08-28T06:33:08.540Z,100542.81
2022-08-28T06:38:30.910Z,100546.47
2022-08-28T06:43:53.609Z,100533.97
2022-08-28T06:49:16.091Z,100529.25
2022-08-28T06:54:38.343Z,100495.22
2022-08-28T07:00:02.381Z,100519.75
2022-08-28T07:05:25.729Z,100515.72
2022-08-28T07:10:48.390Z,100492.34
2022-08-28T07:16:12.176Z,100513.19
2022-08-28T07:21:39.452Z,100509.50
2022-08-28T07:27:06.009Z,100512.66
2022-08-28T07:32:28.339Z,100462.16
2022-08-28T07:37:50.900Z,100453.44
2022-08-28T07:43:34.539Z,100457.78
2022-08-28T07:48:59.949Z,100479.34
2022-08-28T07:54:24.280Z,100432.91
2022-08-28T07:59:53.146Z,100460.34
2022-08-28T08:05:17.801Z,100424.63
2022-08-28T08:10:42.540Z,100456.25
2022-08-28T08:16:12.355Z,100479.38
2022-08-28T08:21:40.880Z,100442.72
2022-08-28T08:27:29.160Z,100463.22
2022-08-28T08:32:51.812Z,100469.44
2022-08-28T08:38:14.212Z,100468.84
2022-08-28T08:43:55.111Z,100465.03
2022-08-28T08:49:23.432Z,100456.41
2022-08-28T08:55:04.060Z,100447.78
2022-08-28T09:00:26.553Z,100461.50
2022-08-28T09:05:54.952Z,100446.88
2022-08-28T09:11:19.800Z,100458.84
2022-08-28T09:16:45.061Z,100447.19
2022-08-28T09:22:07.119Z,100420.72
2022-08-28T09:27:36.006Z,100390.59
2022-08-28T09:33:10.721Z,100393.16
2022-08-28T09:38:33.980Z,100420.03
2022-08-28T09:43:57.723Z,100390.66
2022-08-28T09:49:35.542Z,100377.91
2022-08-28T09:54:59.319Z,100390.31
2022-08-28T10:00:23.509Z,100399.03
2022-08-28T10:05:59.385Z,100408.63
2022-08-28T10:11:48.070Z,100397.59
2022-08-28T10:17:47.403Z,100407.06
2022-08-28T10:23:25.637Z,100354.00
2022-08-28T10:29:12.241Z,100399.25
2022-08-28T10:34:52.661Z,100396.13
2022-08-28T10:40:20.306Z,100361.56
2022-08-28T10:45:42.812Z,100371.72
2022-08-28T10:51:12.699Z,100376.78
2022-08-28T10:56:56.353Z,100361.03
2022-08-28T11:02:23.011Z,100362.84
2022-08-28T11:07:50.860Z,100369.88
2022-08-28T11:13:13.476Z,100359.06
2022-08-28T11:18:50.560Z,100348.06
2022-08-28T11:24:28.952Z,100362.13
2022-08-28T11:30:18.168Z,100355.94
2022-08-28T11:35:53.080Z,100294.41
2022-08-28T11:41:22.379Z,100346.09
2022-08-28T11:46:53.585Z,100301.31
2022-08-28T11:52:53.120Z,100330.44
2022-08-28T11:58:34.973Z,100329.56
2022-08-28T12:04:23.982Z,100270.63
2022-08-28T12:10:00.707Z,100253.66
2022-08-28T12:15:31.116Z,100302.50
2022-08-28T12:21:07.623Z,100299.78
2022-08-28T12:26:40.323Z,100251.97
2022-08-28T12:32:14.340Z,100268.63
2022-08-28T12:37:52.659Z,100291.75
2022-08-28T12:43:24.440Z,100288.59
2022-08-28T12:48:55.627Z,100268.84
2022-08-28T12:54:18.960Z,100281.84
2022-08-28T12:59:44.620Z,100265.34
2022-08-28T13:05:12.602Z,100268.16
2022-08-28T13:10:39.768Z,100261.88
2022-08-28T13:16:05.463Z,100237.50
2022-08-28T13:21:34.081Z,100241.91
2022-08-28T13:27:45.835Z,100244.34
2022-08-28T13:33:21.529Z,100207.94
2022-08-28T13:38:44.685Z,100223.28
2022-08-28T13:44:08.031Z,100233.16
2022-08-28T13:49:30.501Z,100230.06
2022-08-28T13:54:58.144Z,100191.22
2022-08-28T14:00:22.101Z,100225.47
2022-08-28T14:05:45.141Z,100200.31
2022-08-28T14:11:08.279Z,100178.00
2022-08-28T14:16:39.692Z,100161.19
2022-08-28T14:22:02.412Z,100177.41
2022-08-28T14:27:46.919Z,100213.47
2022-08-28T14:33:11.026Z,100216.75
2022-08-28T14:38:33.269Z,100201.28
2022-08-28T14:43:58.771Z,100212.00
2022-08-28T14:49:22.460Z,100207.03
2022-08-28T14:54:44.660Z,100211.94
2022-08-28T15:00:08.460Z,100182.91
2022-08-28T15:05:39.099Z,100209.91
2022-08-28T15:11:05.682Z,100206.53
2022-08-28T15:16:39.838Z,100205.88
2022-08-28T15:22:04.712Z,100204.78
2022-08-28T15:27:29.734Z,100156.13
2022-08-28T15:32:52.100Z,100177.56
2022-08-28T15:38:14.359Z,100184.09
2022-08-28T15:43:36.769Z,100203.59
2022-08-28T15:48:59.182Z,100191.09
2022-08-28T15:54:23.210Z,100194.72
2022-08-28T15:59:49.499Z,100184.50
2022-08-28T16:05:13.919Z,100185.31
2022-08-28T16:10:36.031Z,100189.25
2022-08-28T16:15:57.994Z,100181.25
2022-08-28T16:21:20.490Z,100202.09
2022-08-28T16:26:44.470Z,100176.63
2022-08-28T16:32:09.237Z,100197.47
2022-08-28T16:37:39.829Z,100202.97
2022-08-28T16:43:02.602Z,100202.09
2022-08-28T16:48:24.708Z,100203.69
2022-08-28T16:53:47.621Z,100214.16
2022-08-28T16:59:10.385Z,100212.31
2022-08-28T17:04:35.091Z,100208.38
2022-08-28T17:09:59.940Z,100190.25
2022-08-28T17:15:22.898Z,100209.59
2022-08-28T17:21:04.299Z,100213.56
2022-08-28T17:26:32.643Z,100198.47
2022-08-28T17:32:01.329Z,100182.63
2022-08-28T17:37:30.419Z,100172.09
2022-08-28T17:42:55.080Z,100143.59
2022-08-28T17:48:17.579Z,100196.31
2022-08-28T17:53:40.112Z,100199.66
2022-08-28T17:59:01.960Z,100186.25
2022-08-28T18:04:24.748Z,100197.94
2022-08-28T18:09:47.071Z,100177.03
2022-08-28T18:15:13.323Z,100201.78
2022-08-28T18:20:34.983Z,100123.16
2022-08-28T18:25:57.340Z,100162.97
2022-08-28T18:31:22.429Z,100194.16
2022-08-28T18:36:44.822Z,100143.03
2022-08-28T18:42:07.250Z,100177.50
2022-08-28T18:47:29.549Z,100172.69
2022-08-28T18:52:52.159Z,100192.19
2022-08-28T18:58:15.136Z,100191.66
2022-08-28T19:03:38.189Z,100190.88
2022-08-28T19:09:00.250Z,100169.72
2022-08-28T19:14:22.870Z,100172.63
2022-08-28T19:19:44.981Z,100164.50
2022-08-28T19:25:13.305Z,100103.09
2022-08-28T19:30:50.571Z,100145.72
2022-08-28T19:36:13.240Z,100142.34
2022-08-28T19:41:35.700Z,100178.97
2022-08-28T19:46:57.841Z,100139.34
2022-08-28T19:52:23.161Z,100170.69
2022-08-28T19:57:47.341Z,100171.56
2022-08-28T20:03:09.360Z,100162.13
2022-08-28T20:08:31.831Z,100157.94
2022-08-28T20:13:56.963Z,100169.06
2022-08-28T20:19:21.979Z,100172.44
2022-08-28T20:24:44.560Z,100171.56
2022-08-28T20:30:10.914Z,100143.84
2022-08-28T20:35:33.181Z,100098.19
2022-08-28T20:41:07.539Z,100131.03
2022-08-28T20:46:34.979Z,100121.84
2022-08-28T20:52:02.479Z,100106.66
2022-08-28T20:57:25.639Z,100125.72
2022-08-28T21:02:48.560Z,100136.84
2022-08-28T21:08:12.978Z,100152.94
2022-08-28T21:13:35.240Z,100165.72
2022-08-28T21:19:15.156Z,100169.16
2022-08-28T21:24:38.320Z,100135.72
2022-08-28T21:30:01.912Z,100146.47
2022-08-28T21:35:25.140Z,100180.94
2022-08-28T21:40:47.048Z,100145.25
2022-08-28T21:46:10.791Z,100175.00
2022-08-28T21:51:32.748Z,100169.44
2022-08-28T21:56:58.935Z,100167.94
2022-08-28T22:02:22.409Z,100149.56
2022-08-28T22:07:45.718Z,100165.56
2022-08-28T22:13:08.348Z,100169.53
2022-08-28T22:18:34.076Z,100157.72
2022-08-28T22:23:56.475Z,100118.66
2022-08-28T22:29:18.379Z,100129.53
2022-08-28T22:34:45.841Z,100089.94
2022-08-28T22:40:13.059Z,100156.09
2022-08-28T22:45:35.422Z,100152.25
2022-08-28T22:51:09.850Z,100147.94
2022-08-28T22:56:32.131Z,100143.97
2022-08-28T23:01:54.689Z,100120.88
2022-08-28T23:07:17.202Z,100130.44
2022-08-28T23:12:40.647Z,100107.63
2022-08-28T23:18:02.300Z,100117.28
2022-08-28T23:23:24.699Z,100100.91
2022-08-28T23:28:47.199Z,100120.59
2022-08-28T23:34:08.999Z,100110.59
2022-08-28T23:39:30.769Z,100106.34
2022-08-28T23:44:53.200Z,100119.59
2022-08-28T23:50:19.946Z,100106.06
2022-08-28T23:55:42.303Z,100090.41
